sensor_id;sensor_type;location;lat;lon;timestamp;P1;durP1;ratioP1;P2;durP2;ratioP2
46447;SDS011;32145;50.390;30.778;2022-09-16T00:01:33;4.13;;;3.22;;
46447;SDS011;32145;50.390;30.778;2022-09-16T00:04:17;3.95;;;3.38;;
46447;SDS011;32145;50.390;30.778;2022-09-16T00:07:01;3.78;;;3.30;;
46447;SDS011;32145;50.390;30.778;2022-09-16T00:09:45;4.22;;;3.30;;
46447;SDS011;32145;50.390;30.778;2022-09-16T00:12:29;5.60;;;3.50;;
46447;SDS011;32145;50.390;30.778;2022-09-16T00:15:14;4.63;;;3.45;;
46447;SDS011;32145;50.390;30.778;2022-09-16T00:17:58;5.43;;;3.30;;
46447;SDS011;32145;50.390;30.778;2022-09-16T00:20:44;5.10;;;3.60;;
46447;SDS011;32145;50.390;30.778;2022-09-16T00:23:28;3.83;;;3.17;;
46447;SDS011;32145;50.390;30.778;2022-09-16T00:26:12;3.50;;;3.15;;
46447;SDS011;32145;50.390;30.778;2022-09-16T00:28:56;3.97;;;3.15;;
46447;SDS011;32145;50.390;30.778;2022-09-16T00:31:41;5.53;;;3.65;;
46447;SDS011;32145;50.390;30.778;2022-09-16T00:34:25;5.78;;;3.50;;
46447;SDS011;32145;50.390;30.778;2022-09-16T00:37:09;6.82;;;3.90;;
46447;SDS011;32145;50.390;30.778;2022-09-16T00:39:53;4.28;;;3.53;;
46447;SDS011;32145;50.390;30.778;2022-09-16T00:42:37;9.15;;;4.00;;
46447;SDS011;32145;50.390;30.778;2022-09-16T00:45:22;4.43;;;3.88;;
46447;SDS011;32145;50.390;30.778;2022-09-16T00:48:11;5.38;;;3.70;;
46447;SDS011;32145;50.390;30.778;2022-09-16T00:51:00;5.88;;;4.68;;
46447;SDS011;32145;50.390;30.778;2022-09-16T00:53:48;7.32;;;4.00;;
46447;SDS011;32145;50.390;30.778;2022-09-16T00:56:37;5.30;;;4.20;;
46447;SDS011;32145;50.390;30.778;2022-09-16T00:59:24;6.18;;;4.45;;
46447;SDS011;32145;50.390;30.778;2022-09-16T01:02:12;5.70;;;4.30;;
46447;SDS011;32145;50.390;30.778;2022-09-16T01:05:01;5.63;;;4.32;;
46447;SDS011;32145;50.390;30.778;2022-09-16T01:07:50;5.90;;;4.70;;
46447;SDS011;32145;50.390;30.778;2022-09-16T01:10:35;7.03;;;5.38;;
46447;SDS011;32145;50.390;30.778;2022-09-16T01:13:19;7.50;;;5.15;;
46447;SDS011;32145;50.390;30.778;2022-09-16T01:16:04;6.97;;;4.95;;
46447;SDS011;32145;50.390;30.778;2022-09-16T01:18:53;7.07;;;5.22;;
46447;SDS011;32145;50.390;30.778;2022-09-16T01:21:48;8.32;;;5.85;;
46447;SDS011;32145;50.390;30.778;2022-09-16T01:24:49;7.45;;;5.60;;
46447;SDS011;32145;50.390;30.778;2022-09-16T01:31:07;8.48;;;5.88;;
46447;SDS011;32145;50.390;30.778;2022-09-16T01:33:58;8.23;;;5.93;;
46447;SDS011;32145;50.390;30.778;2022-09-16T01:36:51;9.55;;;6.40;;
46447;SDS011;32145;50.390;30.778;2022-09-16T01:39:43;7.68;;;6.07;;
46447;SDS011;32145;50.390;30.778;2022-09-16T01:42:37;9.63;;;6.40;;
46447;SDS011;32145;50.390;30.778;2022-09-16T01:45:26;8.43;;;6.35;;
46447;SDS011;32145;50.390;30.778;2022-09-16T01:48:20;8.52;;;6.65;;
46447;SDS011;32145;50.390;30.778;2022-09-16T01:51:12;9.10;;;6.82;;
46447;SDS011;32145;50.390;30.778;2022-09-16T01:54:03;8.75;;;6.32;;
46447;SDS011;32145;50.390;30.778;2022-09-16T01:56:52;8.38;;;6.45;;
46447;SDS011;32145;50.390;30.778;2022-09-16T01:59:45;8.60;;;6.60;;
46447;SDS011;32145;50.390;30.778;2022-09-16T02:02:34;8.70;;;6.55;;
46447;SDS011;32145;50.390;30.778;2022-09-16T02:05:25;9.32;;;6.95;;
46447;SDS011;32145;50.390;30.778;2022-09-16T02:08:14;8.93;;;7.22;;
46447;SDS011;32145;50.390;30.778;2022-09-16T02:11:03;8.75;;;7.18;;
46447;SDS011;32145;50.390;30.778;2022-09-16T02:13:52;9.75;;;7.60;;
46447;SDS011;32145;50.390;30.778;2022-09-16T02:16:42;11.07;;;7.03;;
46447;SDS011;32145;50.390;30.778;2022-09-16T02:19:33;9.88;;;7.20;;
46447;SDS011;32145;50.390;30.778;2022-09-16T02:22:24;10.10;;;7.80;;
46447;SDS011;32145;50.390;30.778;2022-09-16T02:25:11;10.27;;;7.50;;
46447;SDS011;32145;50.390;30.778;2022-09-16T02:27:57;10.43;;;7.75;;
46447;SDS011;32145;50.390;30.778;2022-09-16T02:30:46;11.60;;;7.93;;
46447;SDS011;32145;50.390;30.778;2022-09-16T02:33:35;12.55;;;8.13;;
46447;SDS011;32145;50.390;30.778;2022-09-16T02:36:24;10.57;;;8.00;;
46447;SDS011;32145;50.390;30.778;2022-09-16T02:39:10;10.38;;;8.30;;
46447;SDS011;32145;50.390;30.778;2022-09-16T02:41:57;13.13;;;8.07;;
46447;SDS011;32145;50.390;30.778;2022-09-16T02:44:42;11.65;;;8.35;;
46447;SDS011;32145;50.390;30.778;2022-09-16T02:47:29;11.60;;;8.52;;
46447;SDS011;32145;50.390;30.778;2022-09-16T02:50:16;12.27;;;8.95;;
46447;SDS011;32145;50.390;30.778;2022-09-16T02:53:09;12.20;;;8.38;;
46447;SDS011;32145;50.390;30.778;2022-09-16T02:56:07;11.95;;;7.82;;
46447;SDS011;32145;50.390;30.778;2022-09-16T02:58:56;10.50;;;8.18;;
46447;SDS011;32145;50.390;30.778;2022-09-16T03:01:42;10.50;;;8.00;;
46447;SDS011;32145;50.390;30.778;2022-09-16T03:04:27;10.95;;;8.50;;
46447;SDS011;32145;50.390;30.778;2022-09-16T03:07:12;9.80;;;7.80;;
46447;SDS011;32145;50.390;30.778;2022-09-16T03:09:58;11.38;;;7.65;;
46447;SDS011;32145;50.390;30.778;2022-09-16T03:12:49;10.07;;;7.40;;
46447;SDS011;32145;50.390;30.778;2022-09-16T03:15:52;12.18;;;7.82;;
46447;SDS011;32145;50.390;30.778;2022-09-16T03:18:48;10.80;;;8.20;;
46447;SDS011;32145;50.390;30.778;2022-09-16T03:21:39;9.70;;;7.72;;
46447;SDS011;32145;50.390;30.778;2022-09-16T03:24:32;11.32;;;8.45;;
46447;SDS011;32145;50.390;30.778;2022-09-16T03:27:27;9.57;;;7.30;;
46447;SDS011;32145;50.390;30.778;2022-09-16T03:30:15;11.60;;;8.38;;
46447;SDS011;32145;50.390;30.778;2022-09-16T03:33:01;10.77;;;7.88;;
46447;SDS011;32145;50.390;30.778;2022-09-16T03:35:50;10.57;;;8.40;;
46447;SDS011;32145;50.390;30.778;2022-09-16T03:38:37;11.20;;;8.20;;
46447;SDS011;32145;50.390;30.778;2022-09-16T03:41:23;9.80;;;7.70;;
46447;SDS011;32145;50.390;30.778;2022-09-16T03:44:10;10.32;;;8.15;;
46447;SDS011;32145;50.390;30.778;2022-09-16T03:46:55;11.20;;;8.27;;
46447;SDS011;32145;50.390;30.778;2022-09-16T03:49:40;11.65;;;7.90;;
46447;SDS011;32145;50.390;30.778;2022-09-16T03:52:24;9.73;;;7.45;;
46447;SDS011;32145;50.390;30.778;2022-09-16T03:55:08;9.70;;;7.88;;
46447;SDS011;32145;50.390;30.778;2022-09-16T03:57:53;12.55;;;8.50;;
46447;SDS011;32145;50.390;30.778;2022-09-16T04:00:37;12.73;;;8.73;;
46447;SDS011;32145;50.390;30.778;2022-09-16T04:03:23;11.73;;;8.30;;
46447;SDS011;32145;50.390;30.778;2022-09-16T04:06:07;14.07;;;8.65;;
46447;SDS011;32145;50.390;30.778;2022-09-16T04:08:52;18.80;;;9.23;;
46447;SDS011;32145;50.390;30.778;2022-09-16T04:11:36;13.35;;;8.52;;
46447;SDS011;32145;50.390;30.778;2022-09-16T04:14:20;13.52;;;8.10;;
46447;SDS011;32145;50.390;30.778;2022-09-16T04:17:04;12.82;;;9.25;;
46447;SDS011;32145;50.390;30.778;2022-09-16T04:19:49;13.55;;;9.02;;
46447;SDS011;32145;50.390;30.778;2022-09-16T04:22:33;14.00;;;9.10;;
46447;SDS011;32145;50.390;30.778;2022-09-16T04:25:17;12.23;;;8.32;;
46447;SDS011;32145;50.390;30.778;2022-09-16T04:28:01;17.42;;;8.93;;
46447;SDS011;32145;50.390;30.778;2022-09-16T04:30:45;14.13;;;9.15;;
46447;SDS011;32145;50.390;30.778;2022-09-16T04:33:30;13.73;;;9.45;;
46447;SDS011;32145;50.390;30.778;2022-09-16T04:36:17;12.73;;;9.32;;
46447;SDS011;32145;50.390;30.778;2022-09-16T04:39:03;16.73;;;9.45;;
46447;SDS011;32145;50.390;30.778;2022-09-16T04:41:46;13.23;;;8.43;;
46447;SDS011;32145;50.390;30.778;2022-09-16T04:44:30;11.10;;;8.70;;
46447;SDS011;32145;50.390;30.778;2022-09-16T04:47:15;13.10;;;8.43;;
46447;SDS011;32145;50.390;30.778;2022-09-16T04:49:58;12.60;;;8.15;;
46447;SDS011;32145;50.390;30.778;2022-09-16T04:52:44;12.57;;;8.48;;
46447;SDS011;32145;50.390;30.778;2022-09-16T04:55:28;10.07;;;7.63;;
46447;SDS011;32145;50.390;30.778;2022-09-16T04:58:12;12.18;;;7.68;;
46447;SDS011;32145;50.390;30.778;2022-09-16T05:01:02;10.30;;;7.63;;
46447;SDS011;32145;50.390;30.778;2022-09-16T05:03:48;10.85;;;7.90;;
46447;SDS011;32145;50.390;30.778;2022-09-16T05:06:34;12.80;;;7.60;;
46447;SDS011;32145;50.390;30.778;2022-09-16T05:09:21;12.80;;;7.78;;
46447;SDS011;32145;50.390;30.778;2022-09-16T05:12:05;12.93;;;8.20;;
46447;SDS011;32145;50.390;30.778;2022-09-16T05:14:50;12.38;;;8.57;;
46447;SDS011;32145;50.390;30.778;2022-09-16T05:17:34;13.07;;;9.32;;
46447;SDS011;32145;50.390;30.778;2022-09-16T05:20:18;16.48;;;9.00;;
46447;SDS011;32145;50.390;30.778;2022-09-16T05:23:02;11.77;;;8.85;;
46447;SDS011;32145;50.390;30.778;2022-09-16T05:25:48;14.13;;;9.25;;
46447;SDS011;32145;50.390;30.778;2022-09-16T05:28:32;12.82;;;9.30;;
46447;SDS011;32145;50.390;30.778;2022-09-16T05:31:17;13.23;;;9.27;;
46447;SDS011;32145;50.390;30.778;2022-09-16T05:34:03;11.15;;;8.52;;
46447;SDS011;32145;50.390;30.778;2022-09-16T05:36:49;13.25;;;9.50;;
46447;SDS011;32145;50.390;30.778;2022-09-16T05:39:33;13.55;;;8.50;;
46447;SDS011;32145;50.390;30.778;2022-09-16T05:42:19;16.15;;;9.68;;
46447;SDS011;32145;50.390;30.778;2022-09-16T05:45:03;12.90;;;9.52;;
46447;SDS011;32145;50.390;30.778;2022-09-16T05:47:48;11.68;;;9.35;;
46447;SDS011;32145;50.390;30.778;2022-09-16T05:50:32;11.85;;;8.73;;
46447;SDS011;32145;50.390;30.778;2022-09-16T05:53:16;13.43;;;9.43;;
46447;SDS011;32145;50.390;30.778;2022-09-16T05:56:01;14.52;;;9.70;;
46447;SDS011;32145;50.390;30.778;2022-09-16T05:58:50;13.05;;;8.82;;
46447;SDS011;32145;50.390;30.778;2022-09-16T06:01:34;11.90;;;8.88;;
46447;SDS011;32145;50.390;30.778;2022-09-16T06:04:19;11.70;;;9.07;;
46447;SDS011;32145;50.390;30.778;2022-09-16T06:07:03;11.93;;;9.23;;
46447;SDS011;32145;50.390;30.778;2022-09-16T06:09:47;14.98;;;9.48;;
46447;SDS011;32145;50.390;30.778;2022-09-16T06:12:31;12.10;;;8.73;;
46447;SDS011;32145;50.390;30.778;2022-09-16T06:15:16;11.75;;;9.40;;
46447;SDS011;32145;50.390;30.778;2022-09-16T06:18:00;13.40;;;8.98;;
46447;SDS011;32145;50.390;30.778;2022-09-16T06:20:45;13.18;;;8.75;;
46447;SDS011;32145;50.390;30.778;2022-09-16T06:23:29;11.63;;;8.85;;
46447;SDS011;32145;50.390;30.778;2022-09-16T06:26:14;12.23;;;8.45;;
46447;SDS011;32145;50.390;30.778;2022-09-16T06:29:00;12.73;;;8.95;;
46447;SDS011;32145;50.390;30.778;2022-09-16T06:31:45;12.25;;;9.23;;
46447;SDS011;32145;50.390;30.778;2022-09-16T06:34:29;11.85;;;9.18;;
46447;SDS011;32145;50.390;30.778;2022-09-16T06:37:13;12.68;;;9.45;;
46447;SDS011;32145;50.390;30.778;2022-09-16T06:39:57;11.77;;;9.52;;
46447;SDS011;32145;50.390;30.778;2022-09-16T06:42:41;11.73;;;9.30;;
46447;SDS011;32145;50.390;30.778;2022-09-16T06:45:25;13.15;;;8.82;;
46447;SDS011;32145;50.390;30.778;2022-09-16T06:48:10;12.25;;;8.88;;
46447;SDS011;32145;50.390;30.778;2022-09-16T06:50:57;12.48;;;9.50;;
46447;SDS011;32145;50.390;30.778;2022-09-16T06:53:42;11.88;;;9.43;;
46447;SDS011;32145;50.390;30.778;2022-09-16T06:56:27;13.88;;;10.57;;
46447;SDS011;32145;50.390;30.778;2022-09-16T06:59:11;12.85;;;9.63;;
46447;SDS011;32145;50.390;30.778;2022-09-16T07:01:55;11.55;;;9.65;;
46447;SDS011;32145;50.390;30.778;2022-09-16T07:04:41;12.40;;;9.27;;
46447;SDS011;32145;50.390;30.778;2022-09-16T07:07:28;12.75;;;9.32;;
46447;SDS011;32145;50.390;30.778;2022-09-16T07:10:12;12.55;;;9.48;;
46447;SDS011;32145;50.390;30.778;2022-09-16T07:12:56;11.60;;;9.05;;
46447;SDS011;32145;50.390;30.778;2022-09-16T07:15:40;10.30;;;8.38;;
46447;SDS011;32145;50.390;30.778;2022-09-16T07:18:24;11.48;;;8.68;;
46447;SDS011;32145;50.390;30.778;2022-09-16T07:21:10;13.50;;;9.88;;
46447;SDS011;32145;50.390;30.778;2022-09-16T07:23:57;12.25;;;9.10;;
46447;SDS011;32145;50.390;30.778;2022-09-16T07:26:42;11.55;;;8.48;;
46447;SDS011;32145;50.390;30.778;2022-09-16T07:29:26;12.68;;;8.75;;
46447;SDS011;32145;50.390;30.778;2022-09-16T07:32:10;12.75;;;8.82;;
46447;SDS011;32145;50.390;30.778;2022-09-16T07:34:54;16.23;;;9.18;;
46447;SDS011;32145;50.390;30.778;2022-09-16T07:37:40;12.73;;;9.02;;
46447;SDS011;32145;50.390;30.778;2022-09-16T07:40:24;12.50;;;9.27;;
46447;SDS011;32145;50.390;30.778;2022-09-16T07:43:08;12.05;;;8.75;;
46447;SDS011;32145;50.390;30.778;2022-09-16T07:45:54;13.23;;;9.38;;
46447;SDS011;32145;50.390;30.778;2022-09-16T07:48:39;12.63;;;8.35;;
46447;SDS011;32145;50.390;30.778;2022-09-16T07:51:23;10.23;;;7.70;;
46447;SDS011;32145;50.390;30.778;2022-09-16T07:54:11;13.18;;;8.38;;
46447;SDS011;32145;50.390;30.778;2022-09-16T07:56:57;9.63;;;7.63;;
46447;SDS011;32145;50.390;30.778;2022-09-16T07:59:41;12.60;;;8.02;;
46447;SDS011;32145;50.390;30.778;2022-09-16T08:02:25;12.98;;;9.18;;
46447;SDS011;32145;50.390;30.778;2022-09-16T08:05:09;10.77;;;8.20;;
46447;SDS011;32145;50.390;30.778;2022-09-16T08:07:53;10.68;;;7.78;;
46447;SDS011;32145;50.390;30.778;2022-09-16T08:10:38;10.65;;;7.55;;
46447;SDS011;32145;50.390;30.778;2022-09-16T08:13:23;10.25;;;7.07;;
46447;SDS011;32145;50.390;30.778;2022-09-16T08:16:09;11.27;;;7.13;;
46447;SDS011;32145;50.390;30.778;2022-09-16T08:18:55;10.00;;;6.47;;
46447;SDS011;32145;50.390;30.778;2022-09-16T08:21:41;9.38;;;5.80;;
46447;SDS011;32145;50.390;30.778;2022-09-16T08:24:25;8.23;;;5.93;;
46447;SDS011;32145;50.390;30.778;2022-09-16T08:27:10;7.22;;;5.50;;
46447;SDS011;32145;50.390;30.778;2022-09-16T08:29:54;10.00;;;6.22;;
46447;SDS011;32145;50.390;30.778;2022-09-16T08:32:38;8.98;;;5.93;;
46447;SDS011;32145;50.390;30.778;2022-09-16T08:35:22;7.57;;;5.72;;
46447;SDS011;32145;50.390;30.778;2022-09-16T08:38:06;7.50;;;5.70;;
46447;SDS011;32145;50.390;30.778;2022-09-16T08:40:50;11.65;;;6.18;;
46447;SDS011;32145;50.390;30.778;2022-09-16T08:43:41;8.57;;;5.82;;
46447;SDS011;32145;50.390;30.778;2022-09-16T08:46:32;7.95;;;5.47;;
46447;SDS011;32145;50.390;30.778;2022-09-16T08:49:26;8.02;;;5.60;;
46447;SDS011;32145;50.390;30.778;2022-09-16T08:52:17;8.73;;;5.45;;
46447;SDS011;32145;50.390;30.778;2022-09-16T08:55:11;14.25;;;5.32;;
46447;SDS011;32145;50.390;30.778;2022-09-16T08:58:01;7.35;;;4.30;;
46447;SDS011;32145;50.390;30.778;2022-09-16T09:00:52;7.80;;;4.55;;
46447;SDS011;32145;50.390;30.778;2022-09-16T09:03:39;5.93;;;4.03;;
46447;SDS011;32145;50.390;30.778;2022-09-16T09:06:30;6.70;;;4.40;;
46447;SDS011;32145;50.390;30.778;2022-09-16T09:09:33;6.82;;;4.00;;
46447;SDS011;32145;50.390;30.778;2022-09-16T09:12:29;6.75;;;4.63;;
46447;SDS011;32145;50.390;30.778;2022-09-16T09:15:24;6.45;;;3.85;;
46447;SDS011;32145;50.390;30.778;2022-09-16T09:18:23;5.30;;;3.75;;
46447;SDS011;32145;50.390;30.778;2022-09-16T09:21:20;7.03;;;3.53;;
46447;SDS011;32145;50.390;30.778;2022-09-16T09:24:18;7.47;;;3.70;;
46447;SDS011;32145;50.390;30.778;2022-09-16T09:27:14;6.43;;;3.42;;
46447;SDS011;32145;50.390;30.778;2022-09-16T09:30:12;6.90;;;4.20;;
46447;SDS011;32145;50.390;30.778;2022-09-16T09:33:07;6.18;;;4.03;;
46447;SDS011;32145;50.390;30.778;2022-09-16T09:36:17;12.73;;;3.83;;
46447;SDS011;32145;50.390;30.778;2022-09-16T09:42:30;10.38;;;3.55;;
46447;SDS011;32145;50.390;30.778;2022-09-16T09:45:19;5.77;;;3.60;;
46447;SDS011;32145;50.390;30.778;2022-09-16T09:50:58;4.90;;;3.28;;
46447;SDS011;32145;50.390;30.778;2022-09-16T09:53:48;6.18;;;3.40;;
46447;SDS011;32145;50.390;30.778;2022-09-16T09:56:39;5.18;;;3.15;;
46447;SDS011;32145;50.390;30.778;2022-09-16T09:59:28;4.68;;;3.30;;
46447;SDS011;32145;50.390;30.778;2022-09-16T10:02:19;5.13;;;3.20;;
46447;SDS011;32145;50.390;30.778;2022-09-16T10:05:04;5.45;;;3.05;;
46447;SDS011;32145;50.390;30.778;2022-09-16T10:07:50;6.63;;;3.13;;
46447;SDS011;32145;50.390;30.778;2022-09-16T10:10:39;5.93;;;2.88;;
46447;SDS011;32145;50.390;30.778;2022-09-16T10:13:29;4.70;;;2.70;;
46447;SDS011;32145;50.390;30.778;2022-09-16T10:16:14;4.75;;;2.70;;
46447;SDS011;32145;50.390;30.778;2022-09-16T10:19:00;6.72;;;3.50;;
46447;SDS011;32145;50.390;30.778;2022-09-16T10:21:47;5.45;;;2.80;;
46447;SDS011;32145;50.390;30.778;2022-09-16T10:24:35;4.98;;;2.72;;
46447;SDS011;32145;50.390;30.778;2022-09-16T10:27:23;5.63;;;3.33;;
46447;SDS011;32145;50.390;30.778;2022-09-16T10:30:11;4.10;;;2.70;;
46447;SDS011;32145;50.390;30.778;2022-09-16T10:32:59;5.07;;;2.97;;
46447;SDS011;32145;50.390;30.778;2022-09-16T10:35:50;6.50;;;3.10;;
46447;SDS011;32145;50.390;30.778;2022-09-16T10:38:35;9.10;;;3.30;;
46447;SDS011;32145;50.390;30.778;2022-09-16T10:41:23;6.53;;;3.28;;
46447;SDS011;32145;50.390;30.778;2022-09-16T10:44:13;4.47;;;2.75;;
46447;SDS011;32145;50.390;30.778;2022-09-16T10:47:01;5.45;;;3.10;;
46447;SDS011;32145;50.390;30.778;2022-09-16T10:49:50;7.53;;;3.50;;
46447;SDS011;32145;50.390;30.778;2022-09-16T10:52:40;5.15;;;2.90;;
46447;SDS011;32145;50.390;30.778;2022-09-16T10:55:26;5.50;;;2.70;;
46447;SDS011;32145;50.390;30.778;2022-09-16T10:58:13;5.85;;;2.80;;
46447;SDS011;32145;50.390;30.778;2022-09-16T11:01:12;3.90;;;2.38;;
46447;SDS011;32145;50.390;30.778;2022-09-16T11:04:24;4.22;;;2.70;;
46447;SDS011;32145;50.390;30.778;2022-09-16T11:07:28;3.92;;;2.90;;
46447;SDS011;32145;50.390;30.778;2022-09-16T11:10:21;4.82;;;2.58;;
46447;SDS011;32145;50.390;30.778;2022-09-16T11:13:14;5.20;;;2.60;;
46447;SDS011;32145;50.390;30.778;2022-09-16T11:16:13;5.25;;;2.80;;
46447;SDS011;32145;50.390;30.778;2022-09-16T11:19:19;7.00;;;2.67;;
46447;SDS011;32145;50.390;30.778;2022-09-16T11:22:15;5.28;;;2.80;;
46447;SDS011;32145;50.390;30.778;2022-09-16T11:25:15;3.60;;;2.60;;
46447;SDS011;32145;50.390;30.778;2022-09-16T11:28:26;3.70;;;2.40;;
46447;SDS011;32145;50.390;30.778;2022-09-16T11:31:42;4.93;;;2.85;;
46447;SDS011;32145;50.390;30.778;2022-09-16T11:34:39;5.40;;;2.92;;
46447;SDS011;32145;50.390;30.778;2022-09-16T11:37:33;4.38;;;2.72;;
46447;SDS011;32145;50.390;30.778;2022-09-16T11:40:29;4.68;;;2.60;;
46447;SDS011;32145;50.390;30.778;2022-09-16T11:43:34;4.47;;;2.60;;
46447;SDS011;32145;50.390;30.778;2022-09-16T11:46:49;4.03;;;2.40;;
46447;SDS011;32145;50.390;30.778;2022-09-16T11:49:45;6.40;;;3.00;;
46447;SDS011;32145;50.390;30.778;2022-09-16T11:52:49;6.25;;;2.88;;
46447;SDS011;32145;50.390;30.778;2022-09-16T11:55:50;7.78;;;3.00;;
46447;SDS011;32145;50.390;30.778;2022-09-16T11:58:40;6.85;;;2.70;;
46447;SDS011;32145;50.390;30.778;2022-09-16T12:01:29;4.55;;;2.90;;
46447;SDS011;32145;50.390;30.778;2022-09-16T12:04:19;4.03;;;2.80;;
46447;SDS011;32145;50.390;30.778;2022-09-16T12:07:13;5.07;;;3.05;;
46447;SDS011;32145;50.390;30.778;2022-09-16T12:10:02;6.75;;;3.17;;
46447;SDS011;32145;50.390;30.778;2022-09-16T12:12:50;5.07;;;3.03;;
46447;SDS011;32145;50.390;30.778;2022-09-16T12:15:39;4.68;;;2.90;;
46447;SDS011;32145;50.390;30.778;2022-09-16T12:18:29;5.93;;;3.10;;
46447;SDS011;32145;50.390;30.778;2022-09-16T12:21:17;4.57;;;2.90;;
46447;SDS011;32145;50.390;30.778;2022-09-16T12:24:08;5.25;;;3.00;;
46447;SDS011;32145;50.390;30.778;2022-09-16T12:27:00;4.28;;;2.60;;
46447;SDS011;32145;50.390;30.778;2022-09-16T12:29:51;5.10;;;2.83;;
46447;SDS011;32145;50.390;30.778;2022-09-16T12:32:41;5.57;;;2.83;;
46447;SDS011;32145;50.390;30.778;2022-09-16T12:35:35;7.00;;;2.95;;
46447;SDS011;32145;50.390;30.778;2022-09-16T12:38:23;6.22;;;3.15;;
46447;SDS011;32145;50.390;30.778;2022-09-16T12:41:11;7.93;;;3.17;;
46447;SDS011;32145;50.390;30.778;2022-09-16T12:44:23;7.32;;;3.13;;
46447;SDS011;32145;50.390;30.778;2022-09-16T12:47:24;5.38;;;2.92;;
46447;SDS011;32145;50.390;30.778;2022-09-16T12:50:26;4.68;;;2.42;;
46447;SDS011;32145;50.390;30.778;2022-09-16T12:56:47;5.20;;;2.40;;
46447;SDS011;32145;50.390;30.778;2022-09-16T12:59:47;4.32;;;2.60;;
46447;SDS011;32145;50.390;30.778;2022-09-16T13:02:44;3.70;;;2.28;;
46447;SDS011;32145;50.390;30.778;2022-09-16T13:05:33;5.70;;;2.80;;
46447;SDS011;32145;50.390;30.778;2022-09-16T13:08:20;4.85;;;2.83;;
46447;SDS011;32145;50.390;30.778;2022-09-16T13:11:13;7.20;;;2.85;;
46447;SDS011;32145;50.390;30.778;2022-09-16T13:14:01;4.53;;;2.72;;
46447;SDS011;32145;50.390;30.778;2022-09-16T13:16:50;4.70;;;2.28;;
46447;SDS011;32145;50.390;30.778;2022-09-16T13:19:40;3.70;;;2.20;;
46447;SDS011;32145;50.390;30.778;2022-09-16T13:22:31;5.40;;;2.92;;
46447;SDS011;32145;50.390;30.778;2022-09-16T13:25:21;4.72;;;2.80;;
46447;SDS011;32145;50.390;30.778;2022-09-16T13:28:22;3.30;;;2.20;;
46447;SDS011;32145;50.390;30.778;2022-09-16T13:31:14;4.68;;;2.65;;
46447;SDS011;32145;50.390;30.778;2022-09-16T13:34:12;5.20;;;3.10;;
46447;SDS011;32145;50.390;30.778;2022-09-16T13:36:58;6.18;;;3.30;;
46447;SDS011;32145;50.390;30.778;2022-09-16T13:39:41;4.70;;;2.58;;
46447;SDS011;32145;50.390;30.778;2022-09-16T13:42:26;4.57;;;2.58;;
46447;SDS011;32145;50.390;30.778;2022-09-16T13:48:20;6.82;;;2.80;;
46447;SDS011;32145;50.390;30.778;2022-09-16T13:51:13;4.75;;;2.60;;
46447;SDS011;32145;50.390;30.778;2022-09-16T13:54:01;5.20;;;2.33;;
46447;SDS011;32145;50.390;30.778;2022-09-16T13:56:47;5.30;;;2.55;;
46447;SDS011;32145;50.390;30.778;2022-09-16T13:59:44;5.07;;;2.60;;
46447;SDS011;32145;50.390;30.778;2022-09-16T14:02:45;4.32;;;2.50;;
46447;SDS011;32145;50.390;30.778;2022-09-16T14:05:41;4.97;;;2.47;;
46447;SDS011;32145;50.390;30.778;2022-09-16T14:08:47;4.90;;;2.40;;
46447;SDS011;32145;50.390;30.778;2022-09-16T14:11:42;4.20;;;2.60;;
46447;SDS011;32145;50.390;30.778;2022-09-16T14:14:34;5.50;;;2.40;;
46447;SDS011;32145;50.390;30.778;2022-09-16T14:17:19;3.85;;;2.20;;
46447;SDS011;32145;50.390;30.778;2022-09-16T14:20:11;3.63;;;2.28;;
46447;SDS011;32145;50.390;30.778;2022-09-16T14:23:02;5.28;;;2.50;;
46447;SDS011;32145;50.390;30.778;2022-09-16T14:25:47;4.07;;;2.33;;
46447;SDS011;32145;50.390;30.778;2022-09-16T14:28:31;5.57;;;2.47;;
46447;SDS011;32145;50.390;30.778;2022-09-16T14:31:16;8.00;;;2.70;;
46447;SDS011;32145;50.390;30.778;2022-09-16T14:34:04;4.50;;;2.60;;
46447;SDS011;32145;50.390;30.778;2022-09-16T14:36:52;5.15;;;2.80;;
46447;SDS011;32145;50.390;30.778;2022-09-16T14:39:36;5.13;;;2.70;;
46447;SDS011;32145;50.390;30.778;2022-09-16T14:42:25;4.47;;;2.70;;
46447;SDS011;32145;50.390;30.778;2022-09-16T14:45:12;6.80;;;3.00;;
46447;SDS011;32145;50.390;30.778;2022-09-16T14:47:59;4.00;;;2.67;;
46447;SDS011;32145;50.390;30.778;2022-09-16T14:50:48;4.15;;;2.60;;
46447;SDS011;32145;50.390;30.778;2022-09-16T14:53:34;5.65;;;3.08;;
46447;SDS011;32145;50.390;30.778;2022-09-16T14:56:18;5.35;;;3.58;;
46447;SDS011;32145;50.390;30.778;2022-09-16T14:59:02;5.35;;;2.75;;
46447;SDS011;32145;50.390;30.778;2022-09-16T15:01:47;5.63;;;2.92;;
46447;SDS011;32145;50.390;30.778;2022-09-16T15:04:32;4.30;;;2.58;;
46447;SDS011;32145;50.390;30.778;2022-09-16T15:07:20;5.13;;;3.65;;
46447;SDS011;32145;50.390;30.778;2022-09-16T15:10:08;4.85;;;3.65;;
46447;SDS011;32145;50.390;30.778;2022-09-16T15:13:03;5.10;;;3.67;;
46447;SDS011;32145;50.390;30.778;2022-09-16T15:15:52;5.47;;;3.33;;
46447;SDS011;32145;50.390;30.778;2022-09-16T15:18:38;7.53;;;3.50;;
46447;SDS011;32145;50.390;30.778;2022-09-16T15:21:26;6.20;;;3.92;;
46447;SDS011;32145;50.390;30.778;2022-09-16T15:24:14;5.88;;;4.13;;
46447;SDS011;32145;50.390;30.778;2022-09-16T15:29:48;7.95;;;4.82;;
46447;SDS011;32145;50.390;30.778;2022-09-16T15:32:41;8.05;;;5.78;;
46447;SDS011;32145;50.390;30.778;2022-09-16T15:35:27;12.13;;;8.05;;
46447;SDS011;32145;50.390;30.778;2022-09-16T15:38:19;11.43;;;7.10;;
46447;SDS011;32145;50.390;30.778;2022-09-16T15:41:04;7.88;;;4.72;;
46447;SDS011;32145;50.390;30.778;2022-09-16T15:43:54;9.15;;;4.88;;
46447;SDS011;32145;50.390;30.778;2022-09-16T15:46:43;7.25;;;5.28;;
46447;SDS011;32145;50.390;30.778;2022-09-16T15:49:28;9.20;;;6.63;;
46447;SDS011;32145;50.390;30.778;2022-09-16T15:52:18;9.25;;;6.22;;
46447;SDS011;32145;50.390;30.778;2022-09-16T15:55:04;10.20;;;6.53;;
46447;SDS011;32145;50.390;30.778;2022-09-16T15:57:48;13.23;;;7.97;;
46447;SDS011;32145;50.390;30.778;2022-09-16T16:03:49;9.73;;;7.10;;
46447;SDS011;32145;50.390;30.778;2022-09-16T16:06:43;18.20;;;12.02;;
46447;SDS011;32145;50.390;30.778;2022-09-16T16:09:37;22.48;;;13.77;;
46447;SDS011;32145;50.390;30.778;2022-09-16T16:12:23;22.02;;;13.23;;
46447;SDS011;32145;50.390;30.778;2022-09-16T16:15:07;14.52;;;6.90;;
46447;SDS011;32145;50.390;30.778;2022-09-16T16:17:53;17.35;;;10.25;;
46447;SDS011;32145;50.390;30.778;2022-09-16T16:20:41;15.02;;;8.73;;
46447;SDS011;32145;50.390;30.778;2022-09-16T16:23:26;14.90;;;9.13;;
46447;SDS011;32145;50.390;30.778;2022-09-16T16:26:10;12.20;;;6.18;;
46447;SDS011;32145;50.390;30.778;2022-09-16T16:28:54;9.82;;;5.35;;
46447;SDS011;32145;50.390;30.778;2022-09-16T16:31:38;9.40;;;5.40;;
46447;SDS011;32145;50.390;30.778;2022-09-16T16:34:23;9.73;;;6.13;;
46447;SDS011;32145;50.390;30.778;2022-09-16T16:37:07;7.43;;;3.85;;
46447;SDS011;32145;50.390;30.778;2022-09-16T16:39:53;6.13;;;3.22;;
46447;SDS011;32145;50.390;30.778;2022-09-16T16:42:37;6.45;;;3.00;;
46447;SDS011;32145;50.390;30.778;2022-09-16T16:45:21;4.72;;;2.83;;
46447;SDS011;32145;50.390;30.778;2022-09-16T16:48:05;4.30;;;2.67;;
46447;SDS011;32145;50.390;30.778;2022-09-16T16:51:00;7.25;;;2.35;;
46447;SDS011;32145;50.390;30.778;2022-09-16T16:53:45;5.03;;;2.40;;
46447;SDS011;32145;50.390;30.778;2022-09-16T16:56:29;5.15;;;2.35;;